トロント/ピアソン の空港の天気 - METARとTAF

トロント・ピアソン国際空港 ( CYYZ / YYZ ) - カナダ オンタリオ州トロント
飛行場実況気象(Metar)
観測時間06/24 05:00 EDT (06/24 09:00 UTC)
風向・風速東 5m/s
視程10km以上
天気現象
少しの雲 雲底高度 5490m
全天の4割程度の雲 雲底高度 6710m
気温17℃
湿度68%
気圧1010.6hPa
METARCYYZ 240900Z 09009KT 15SM FEW180 SCT220 17/11 A2984 RMK AC1CI3 AC TR SLP106 DENSITY ALT 1000FT
過去の天気等 Google飛行場航空写真 Wunderground天気予報

過去48時間のMETAR

飛行場予報(TAF)
発表時間: 6/24 04:45 EDT (6/24 08:45 UTC)
予報対象時間: 24日5時 EDT ~ 25日8時 EDT
風向・風速東北東 3m/s
視程10km以上
なし
24日7時 EDT から
風向・風速東南東 3m/s
視程10km以上
全天の8割程度の雲 雲底高度 5490m
24日8時 EDT ~ 24日10時 EDT に徐々に
風向・風速東南東 6m/s
24日14時 EDT から
風向・風速東南東 6m/s
視程10km以上
全天の8割程度の雲 雲底高度 1220m
24日14時 EDT ~ 24日20時 EDT に一時的に
視程10km以上
天気現象弱いしゅう雨
24日20時 EDT から
風向・風速東 5m/s
視程10km以上
天気現象弱いしゅう雨
全天の8割程度の雲 雲底高度 910m
24日23時 EDT から
風向・風速東 6m/s
視程8050m
天気現象しゅう雨 もや
全天の8割程度の雲 雲底高度 610m
全天を覆う雲 雲底高度 1220m
24日23時 EDT から 確率 30% で
風向・風速不定 8m/s 瞬間風速 15m/s
視程3220m
天気現象雷雨 もや
全天の8割程度の雲 雲底高度 240m
全天を覆う積乱雲 雲底高度 910m
25日5時 EDT から
風向・風速西南西 8m/s 瞬間風速 15m/s
視程10km以上
全天の8割程度の雲 雲底高度 610m
TAF CYYZ 240845Z 2409/2512 07005KT P6SM SKC
FM241100 11005KT P6SM BKN180
BECMG 2412/2414 11012KT
FM241800 12012KT P6SM BKN040
TEMPO 2418/2424 P6SM -SHRA
FM250000 09010KT P6SM -SHRA BKN030
FM250300 10012KT 5SM SHRA BR BKN020 OVC040
PROB30 2503/2507 VRB15G30KT 2SM TSRA BR BKN008 OVC030CB
FM250900 25015G30KT P6SM BKN020 RMK NXT FCST BY 241200Z